Rechercher aéroport 
image banner adimage banner adimage banner ad
image banner ad

12CL - Newton Field

Situé à Stratford, United States

ICAO - 12CL, IATA -

Données fournies par Airmate  

Information générale

Coordonnées: N36°9'25" W119°50'58"
Élévation : 194 feet MSL.
Variation magnétique : 15° East
Voir autres Aéroports à California

Données opérationnelles

Special qualification required
Heure actuelle UTC:
Heure actuelle locale:
Météo à : KNLC - Lemoore Nas (Reeves Fld) ( 22 km )
METAR: KNLC 270556Z 26004KT 10SM FEW100 SCT150 BKN200 29/09 A2989 RMK AO2 SLP120 RH/28 T02890089 10378 20289 53010
TAF: TAF AMD KNLC 2700/2723 16018G25KT 9999 FEW010 SCT100 BKN200 641609 652404 530009 530903 551809 532703 QNH2977INS TEMPO 2700/2706 24009KT FEW010 SCT100 BKN200 FM270600 VRB06KT 9999 SCT100 BKN200 641609 652404 551809 532703 QNH2975INS T19/2714Z T39/2723Z AMD 0030 FS30012
Voir NOTAMs / SUP AIP / TFR affectant cet aéroport [VIEW]
Fréquences de communication: [VIEW]

Pistes:

Identifiant RWYQFULongueur (ft)Largeur (ft)SurfaceLDA (ft)
14279040ASPH
32279040ASPH

Coordonnées de l'aéroport

Adresse: Stratford United States

Vue satellite de 12CL